Details From MMMX - Licenciado Benito Juarez Intl
To MMLO - GUANAJUATO INTL
Flight Number -
Tags generated
Created
Modified
Stats Distance 168 nm / 310 km
Max Altitude 14,300 ft / 4,359 m
Waypoints 4
Social Downloads 3
Likes 0
Share VATSIM

Download

Looking for another format? Having issues loading an existing format? Contact us
Advertisement - Login to hide

Notes

Basic altitude profile: - Ascent Rate: 2500ft/min - Ascent Speed: 250kts - Cruise Altitude: 35000ft - Cruise Speed: 420kts - Descent Rate: 1500ft/min - Descent Speed: 250kts Options: - Use NATs: yes - Use PACOTS: yes - Use low airways: yes - Use high airways: yes

Route

MMMX PTJ V32 FRESA MMLO

ID Type Via Altitude Latitude Longitude Leg Dist Tot Dist Heading (true) Name
O MMMX APT - 0 ft / 0 m 19.43631˚ -99.07210˚ - 0 nm - Licenciado Benito Juarez Intl
PTJ VOR - 14,300 ft / 4,359 m 19.64569˚ -99.79803˚ 42 nm 42 nm 287° / 287° PASTEJE VOR-DME
FRESA FIX V32 (AWY-LO) 14,000 ft / 4,267 m 20.59899˚ -100.98097˚ 87 nm 130 nm 311° / 310° -
O MMLO APT - 0 ft / 0 m 20.99346˚ -101.48085˚ 36 nm 167 nm 310° / 310° GUANAJUATO INTL

Altitude Profile

Advertisement - Login to hide

Weather


0- 5 10 15 20 25 30 35+ Temperature / ° C

Clouds and Precipitation
Forecast for 2017-12-14 06:00 UTC. Updated an hour ago

Ground ~20,000 ft ~40,000 ft Winds

MMMX

Details ICAO MMMX (MEX)
Name Licenciado Benito Juarez Intl
Region Mexico
Timezone America/Mexico_City (UTC-6.0)
Stats Elevation 7,316 ft / 2,230 m (AMSL)
Location 19.436308° -99.072104°
Runways 2
Magnetic Variation 4.649° E

METAR

MMMX 140354Z 19003KT 7SM SKC 14/02 A3031 NOSIG RMK HZY

Decode

TAF

Not found

Departure Runways

ID Width Length Bearing (true) Bearing (mag) Surface Threshold Offset Overrun Length
05L 148 ft / 45 m 12,951 ft / 3,948 m 59.25° 54.60° Asphalt 1,033 ft / 315 m 0 ft / 0 m
05R 148 ft / 45 m 12,800 ft / 3,902 m 59.26° 54.61° Asphalt 1,493 ft / 455 m 0 ft / 0 m
23L 148 ft / 45 m 12,800 ft / 3,902 m 239.28° 234.63° Asphalt 0 ft / 0 m 200 ft / 61 m
23R 148 ft / 45 m 12,951 ft / 3,948 m 239.27° 234.62° Asphalt 1,640 ft / 500 m 0 ft / 0 m

MMLO

Details ICAO MMLO (BJX)
Name GUANAJUATO INTL
Region Mexico
Timezone America/Mexico_City (UTC-6.0)
Stats Elevation 5,956 ft / 1,815 m (AMSL)
Location 20.993462° -101.480847°
Runways 1
Magnetic Variation 5.586° E

METAR

MMLO 140347Z 05004KT 8SM SCT220 10/M02 A3027 RMK 8/002

Decode

TAF

Not found

Destination Runways

ID Width Length Bearing (true) Bearing (mag) Surface Threshold Offset Overrun Length
13 148 ft / 45 m 11,451 ft / 3,490 m 134.09° 128.50° Asphalt 0 ft / 0 m 204 ft / 62 m
31 148 ft / 45 m 11,451 ft / 3,490 m 314.10° 308.51° Asphalt 0 ft / 0 m 204 ft / 62 m

Popular Alternatives